sensor_id;sensor_type;location;lat;lon;timestamp;pressure;altitude;pressure_sealevel;temperature;humidity
22440;BME280;11387;51.612;7.210;2023-09-30T00:00:36;101627.97;;;11.08;100.00
22440;BME280;11387;51.612;7.210;2023-09-30T00:03:05;101626.88;;;11.04;100.00
22440;BME280;11387;51.612;7.210;2023-09-30T00:05:35;101626.34;;;11.07;100.00
22440;BME280;11387;51.612;7.210;2023-09-30T00:08:04;101628.25;;;11.07;100.00
22440;BME280;11387;51.612;7.210;2023-09-30T00:10:34;101626.88;;;11.04;100.00
22440;BME280;11387;51.612;7.210;2023-09-30T00:13:04;101626.88;;;11.04;100.00
22440;BME280;11387;51.612;7.210;2023-09-30T00:15:34;101629.63;;;11.04;100.00
22440;BME280;11387;51.612;7.210;2023-09-30T00:18:04;101634.56;;;11.07;100.00
22440;BME280;11387;51.612;7.210;2023-09-30T00:20:32;101638.94;;;11.03;100.00
22440;BME280;11387;51.612;7.210;2023-09-30T00:23:03;101641.13;;;11.01;100.00
22440;BME280;11387;51.612;7.210;2023-09-30T00:25:33;101636.47;;;11.02;100.00
22440;BME280;11387;51.612;7.210;2023-09-30T00:28:02;101645.28;;;10.99;100.00
22440;BME280;11387;51.612;7.210;2023-09-30T00:30:30;101648.28;;;10.97;100.00
22440;BME280;11387;51.612;7.210;2023-09-30T00:32:59;101626.94;;;10.99;100.00
22440;BME280;11387;51.612;7.210;2023-09-30T00:35:28;101626.94;;;10.99;100.00
22440;BME280;11387;51.612;7.210;2023-09-30T00:37:56;101628.25;;;11.02;100.00
22440;BME280;11387;51.612;7.210;2023-09-30T00:40:26;101634.81;;;11.06;100.00
22440;BME280;11387;51.612;7.210;2023-09-30T00:42:55;101629.91;;;11.08;100.00
22440;BME280;11387;51.612;7.210;2023-09-30T00:45:23;101635.91;;;11.10;100.00
22440;BME280;11387;51.612;7.210;2023-09-30T00:47:52;101646.88;;;11.15;100.00
22440;BME280;11387;51.612;7.210;2023-09-30T00:50:21;101646.84;;;11.25;100.00
22440;BME280;11387;51.612;7.210;2023-09-30T00:52:50;101635.06;;;11.30;100.00
22440;BME280;11387;51.612;7.210;2023-09-30T00:55:19;101631.50;;;11.29;100.00
22440;BME280;11387;51.612;7.210;2023-09-30T00:57:50;101616.44;;;11.27;100.00
22440;BME280;11387;51.612;7.210;2023-09-30T01:00:19;101627.41;;;11.27;100.00
22440;BME280;11387;51.612;7.210;2023-09-30T01:02:48;101640.25;;;11.31;100.00
22440;BME280;11387;51.612;7.210;2023-09-30T01:05:17;101652.25;;;11.45;100.00
22440;BME280;11387;51.612;7.210;2023-09-30T01:07:46;101653.63;;;11.53;100.00
22440;BME280;11387;51.612;7.210;2023-09-30T01:10:14;101649.22;;;11.57;100.00
22440;BME280;11387;51.612;7.210;2023-09-30T01:12:59;101654.44;;;11.54;100.00
22440;BME280;11387;51.612;7.210;2023-09-30T01:15:28;101654.72;;;11.47;100.00
22440;BME280;11387;51.612;7.210;2023-09-30T01:17:57;101648.72;;;11.40;100.00
22440;BME280;11387;51.612;7.210;2023-09-30T01:20:26;101643.78;;;11.37;100.00
22440;BME280;11387;51.612;7.210;2023-09-30T01:22:57;101632.81;;;11.37;100.00
22440;BME280;11387;51.612;7.210;2023-09-30T01:25:26;101626.25;;;11.33;100.00
22440;BME280;11387;51.612;7.210;2023-09-30T01:27:54;101632.84;;;11.32;100.00
22440;BME280;11387;51.612;7.210;2023-09-30T01:30:25;101644.09;;;11.30;100.00
22440;BME280;11387;51.612;7.210;2023-09-30T01:32:53;101646.25;;;11.38;100.00
22440;BME280;11387;51.612;7.210;2023-09-30T01:35:26;101640.50;;;11.40;100.00
22440;BME280;11387;51.612;7.210;2023-09-30T01:37:54;101635.56;;;11.32;100.00
22440;BME280;11387;51.612;7.210;2023-09-30T01:40:24;101638.34;;;11.27;100.00
22440;BME280;11387;51.612;7.210;2023-09-30T01:43:07;101650.41;;;11.31;100.00
22440;BME280;11387;51.612;7.210;2023-09-30T01:45:36;101658.09;;;11.29;100.00
22440;BME280;11387;51.612;7.210;2023-09-30T01:48:05;101662.47;;;11.25;100.00
22440;BME280;11387;51.612;7.210;2023-09-30T01:50:34;101661.38;;;11.26;100.00
22440;BME280;11387;51.612;7.210;2023-09-30T01:53:03;101681.09;;;11.28;100.00
22440;BME280;11387;51.612;7.210;2023-09-30T01:55:33;101670.13;;;11.28;100.00
22440;BME280;11387;51.612;7.210;2023-09-30T01:58:02;101659.19;;;11.28;100.00
22440;BME280;11387;51.612;7.210;2023-09-30T02:00:31;101646.31;;;11.23;100.00
22440;BME280;11387;51.612;7.210;2023-09-30T02:03:00;101644.38;;;11.24;100.00
22440;BME280;11387;51.612;7.210;2023-09-30T02:05:29;101646.03;;;11.20;100.00
22440;BME280;11387;51.612;7.210;2023-09-30T02:07:58;101655.91;;;11.21;100.00
22440;BME280;11387;51.612;7.210;2023-09-30T02:10:27;101670.69;;;11.20;100.00
22440;BME280;11387;51.612;7.210;2023-09-30T02:12:57;101682.19;;;11.17;100.00
22440;BME280;11387;51.612;7.210;2023-09-30T02:15:29;101686.59;;;11.12;100.00
22440;BME280;11387;51.612;7.210;2023-09-30T02:17:59;101680.28;;;11.07;100.00
22440;BME280;11387;51.612;7.210;2023-09-30T02:20:27;101686.31;;;11.04;100.00
22440;BME280;11387;51.612;7.210;2023-09-30T02:22:58;101687.41;;;11.03;100.00
22440;BME280;11387;51.612;7.210;2023-09-30T02:25:29;101684.94;;;11.01;100.00
22440;BME280;11387;51.612;7.210;2023-09-30T02:28:22;101669.63;;;11.00;100.00
22440;BME280;11387;51.612;7.210;2023-09-30T02:30:51;101671.56;;;11.00;100.00
22440;BME280;11387;51.612;7.210;2023-09-30T02:33:20;101665.81;;;10.96;100.00
22440;BME280;11387;51.612;7.210;2023-09-30T02:36:03;101656.78;;;10.91;100.00
22440;BME280;11387;51.612;7.210;2023-09-30T02:38:35;101652.13;;;10.91;100.00
22440;BME280;11387;51.612;7.210;2023-09-30T02:41:04;101645.00;;;10.85;100.00
22440;BME280;11387;51.612;7.210;2023-09-30T02:43:34;101650.19;;;10.87;100.00
22440;BME280;11387;51.612;7.210;2023-09-30T02:46:06;101641.16;;;10.96;100.00
22440;BME280;11387;51.612;7.210;2023-09-30T02:48:36;101640.63;;;10.94;100.00
22440;BME280;11387;51.612;7.210;2023-09-30T02:51:09;101646.38;;;10.88;100.00
22440;BME280;11387;51.612;7.210;2023-09-30T02:53:38;101652.66;;;10.78;100.00
22440;BME280;11387;51.612;7.210;2023-09-30T02:56:06;101654.84;;;10.71;100.00
22440;BME280;11387;51.612;7.210;2023-09-30T02:58:36;101660.91;;;10.63;100.00
22440;BME280;11387;51.612;7.210;2023-09-30T03:01:05;101677.03;;;10.59;100.00
22440;BME280;11387;51.612;7.210;2023-09-30T03:03:37;101680.59;;;10.55;100.00
22440;BME280;11387;51.612;7.210;2023-09-30T03:06:07;101687.72;;;10.61;100.00
22440;BME280;11387;51.612;7.210;2023-09-30T03:08:36;101684.44;;;10.59;100.00
22440;BME280;11387;51.612;7.210;2023-09-30T03:11:11;101671.03;;;10.62;100.00
22440;BME280;11387;51.612;7.210;2023-09-30T03:13:56;101671.03;;;10.62;100.00
22440;BME280;11387;51.612;7.210;2023-09-30T03:16:45;101682.78;;;10.68;100.00
22440;BME280;11387;51.612;7.210;2023-09-30T03:19:14;101672.41;;;10.70;100.00
22440;BME280;11387;51.612;7.210;2023-09-30T03:21:43;101663.06;;;10.71;100.00
22440;BME280;11387;51.612;7.210;2023-09-30T03:24:12;101661.72;;;10.63;100.00
22440;BME280;11387;51.612;7.210;2023-09-30T03:26:42;101659.81;;;10.64;100.00
22440;BME280;11387;51.612;7.210;2023-09-30T03:29:12;101661.44;;;10.60;100.00
22440;BME280;11387;51.612;7.210;2023-09-30T03:31:41;101658.69;;;10.55;100.00
22440;BME280;11387;51.612;7.210;2023-09-30T03:34:09;101663.63;;;10.53;100.00
22440;BME280;11387;51.612;7.210;2023-09-30T03:36:38;101654.31;;;10.49;100.00
22440;BME280;11387;51.612;7.210;2023-09-30T03:39:08;101654.03;;;10.45;100.00
22440;BME280;11387;51.612;7.210;2023-09-30T03:41:41;101661.44;;;10.39;100.00
22440;BME280;11387;51.612;7.210;2023-09-30T03:44:11;101663.88;;;10.36;100.00
22440;BME280;11387;51.612;7.210;2023-09-30T03:46:40;101657.56;;;10.40;100.00
22440;BME280;11387;51.612;7.210;2023-09-30T03:49:08;101667.44;;;10.41;100.00
22440;BME280;11387;51.612;7.210;2023-09-30T03:51:37;101662.50;;;10.43;100.00
22440;BME280;11387;51.612;7.210;2023-09-30T03:54:07;101666.34;;;10.42;100.00
22440;BME280;11387;51.612;7.210;2023-09-30T03:56:36;101674.00;;;10.40;100.00
22440;BME280;11387;51.612;7.210;2023-09-30T03:59:05;101661.41;;;10.44;100.00
22440;BME280;11387;51.612;7.210;2023-09-30T04:01:38;101657.84;;;10.44;100.00
22440;BME280;11387;51.612;7.210;2023-09-30T04:04:07;101652.09;;;10.40;100.00
22440;BME280;11387;51.612;7.210;2023-09-30T04:06:37;101659.78;;;10.38;100.00
22440;BME280;11387;51.612;7.210;2023-09-30T04:09:06;101665.78;;;10.40;100.00
22440;BME280;11387;51.612;7.210;2023-09-30T04:11:38;101664.69;;;10.41;100.00
22440;BME280;11387;51.612;7.210;2023-09-30T04:14:09;101660.31;;;10.40;100.00
22440;BME280;11387;51.612;7.210;2023-09-30T04:16:40;101660.06;;;10.37;100.00
22440;BME280;11387;51.612;7.210;2023-09-30T04:19:10;101656.50;;;10.36;100.00
22440;BME280;11387;51.612;7.210;2023-09-30T04:21:39;101660.59;;;10.34;100.00
22440;BME280;11387;51.612;7.210;2023-09-30T04:24:07;101660.34;;;10.35;100.00
22440;BME280;11387;51.612;7.210;2023-09-30T04:26:36;101655.69;;;10.36;100.00
22440;BME280;11387;51.612;7.210;2023-09-30T04:29:05;101653.78;;;10.52;100.00
22440;BME280;11387;51.612;7.210;2023-09-30T04:31:33;101661.16;;;10.56;100.00
22440;BME280;11387;51.612;7.210;2023-09-30T04:34:03;101665.53;;;10.52;100.00
22440;BME280;11387;51.612;7.210;2023-09-30T04:36:32;101671.53;;;10.49;100.00
22440;BME280;11387;51.612;7.210;2023-09-30T04:39:03;101680.84;;;10.48;100.00
22440;BME280;11387;51.612;7.210;2023-09-30T04:41:32;101673.44;;;10.43;100.00
22440;BME280;11387;51.612;7.210;2023-09-30T04:44:01;101677.31;;;10.37;100.00
22440;BME280;11387;51.612;7.210;2023-09-30T04:46:29;101684.94;;;10.35;100.00
22440;BME280;11387;51.612;7.210;2023-09-30T04:48:58;101686.03;;;10.34;100.00
22440;BME280;11387;51.612;7.210;2023-09-30T04:51:28;101686.59;;;10.36;100.00
22440;BME280;11387;51.612;7.210;2023-09-30T04:53:58;101682.19;;;10.30;100.00
22440;BME280;11387;51.612;7.210;2023-09-30T04:56:26;101687.13;;;10.28;100.00
22440;BME280;11387;51.612;7.210;2023-09-30T04:58:55;101691.78;;;10.28;100.00
22440;BME280;11387;51.612;7.210;2023-09-30T05:01:24;101700.00;;;10.33;100.00
22440;BME280;11387;51.612;7.210;2023-09-30T05:03:53;101698.59;;;10.25;100.00
22440;BME280;11387;51.612;7.210;2023-09-30T05:06:22;101698.06;;;10.28;100.00
22440;BME280;11387;51.612;7.210;2023-09-30T05:08:52;101686.00;;;10.24;100.00
22440;BME280;11387;51.612;7.210;2023-09-30T05:11:22;101690.38;;;10.20;100.00
22440;BME280;11387;51.612;7.210;2023-09-30T05:13:51;101687.59;;;10.15;100.00
22440;BME280;11387;51.612;7.210;2023-09-30T05:16:20;101696.88;;;10.14;100.00
22440;BME280;11387;51.612;7.210;2023-09-30T05:18:49;101708.34;;;10.11;100.00
22440;BME280;11387;51.612;7.210;2023-09-30T05:21:18;101710.00;;;10.07;100.00
22440;BME280;11387;51.612;7.210;2023-09-30T05:23:49;101709.47;;;10.05;100.00
22440;BME280;11387;51.612;7.210;2023-09-30T05:26:19;101704.53;;;10.02;100.00
22440;BME280;11387;51.612;7.210;2023-09-30T05:28:47;101708.88;;;9.98;100.00
22440;BME280;11387;51.612;7.210;2023-09-30T05:31:16;101707.78;;;9.94;100.00
22440;BME280;11387;51.612;7.210;2023-09-30T05:33:45;101703.66;;;9.91;100.00
22440;BME280;11387;51.612;7.210;2023-09-30T05:36:15;101708.31;;;9.91;100.00
22440;BME280;11387;51.612;7.210;2023-09-30T05:38:44;101717.38;;;10.01;100.00
22440;BME280;11387;51.612;7.210;2023-09-30T05:41:14;101714.94;;;10.05;100.00
22440;BME280;11387;51.612;7.210;2023-09-30T05:43:44;101721.22;;;10.05;100.00
22440;BME280;11387;51.612;7.210;2023-09-30T05:46:12;101720.69;;;10.08;100.00
22440;BME280;11387;51.612;7.210;2023-09-30T05:48:41;101714.41;;;10.08;100.00
22440;BME280;11387;51.612;7.210;2023-09-30T05:51:10;101711.09;;;10.11;100.00
22440;BME280;11387;51.612;7.210;2023-09-30T05:53:43;101715.75;;;10.16;100.00
22440;BME280;11387;51.612;7.210;2023-09-30T05:56:12;101710.63;;;10.19;100.00
22440;BME280;11387;51.612;7.210;2023-09-30T05:58:43;101720.47;;;10.25;100.00
22440;BME280;11387;51.612;7.210;2023-09-30T06:01:14;101724.06;;;10.31;100.00
22440;BME280;11387;51.612;7.210;2023-09-30T06:03:46;101713.69;;;10.38;100.00
22440;BME280;11387;51.612;7.210;2023-09-30T06:06:15;101706.81;;;10.40;100.00
22440;BME280;11387;51.612;7.210;2023-09-30T06:08:44;101712.31;;;10.51;100.00
22440;BME280;11387;51.612;7.210;2023-09-30T06:11:16;101706.31;;;10.59;100.00
22440;BME280;11387;51.612;7.210;2023-09-30T06:13:47;101712.91;;;10.68;100.00
22440;BME280;11387;51.612;7.210;2023-09-30T06:16:16;101710.97;;;10.73;100.00
22440;BME280;11387;51.612;7.210;2023-09-30T06:18:45;101717.81;;;10.81;100.00
22440;BME280;11387;51.612;7.210;2023-09-30T06:21:14;101723.31;;;10.91;100.00
22440;BME280;11387;51.612;7.210;2023-09-30T06:23:45;101725.75;;;11.08;100.00
22440;BME280;11387;51.612;7.210;2023-09-30T06:26:14;101721.09;;;11.19;100.00
22440;BME280;11387;51.612;7.210;2023-09-30T06:28:43;101726.53;;;11.34;100.00
22440;BME280;11387;51.612;7.210;2023-09-30T06:31:14;101730.91;;;11.50;100.00
22440;BME280;11387;51.612;7.210;2023-09-30T06:33:43;101722.34;;;11.62;100.00
22440;BME280;11387;51.612;7.210;2023-09-30T06:36:12;101718.78;;;11.76;100.00
22440;BME280;11387;51.612;7.210;2023-09-30T06:38:42;101721.50;;;11.92;100.00
22440;BME280;11387;51.612;7.210;2023-09-30T06:41:23;101732.34;;;12.12;100.00
22440;BME280;11387;51.612;7.210;2023-09-30T06:43:52;101741.34;;;12.67;100.00
22440;BME280;11387;51.612;7.210;2023-09-30T06:46:22;101741.09;;;13.84;100.00
22440;BME280;11387;51.612;7.210;2023-09-30T06:48:52;101739.81;;;15.13;100.00
22440;BME280;11387;51.612;7.210;2023-09-30T06:51:20;101736.72;;;16.29;100.00
22440;BME280;11387;51.612;7.210;2023-09-30T06:53:49;101745.88;;;16.88;87.99
22440;BME280;11387;51.612;7.210;2023-09-30T06:56:20;101749.97;;;17.66;84.14
22440;BME280;11387;51.612;7.210;2023-09-30T06:58:49;101753.91;;;18.39;79.51
22440;BME280;11387;51.612;7.210;2023-09-30T07:01:20;101748.59;;;18.69;74.25
22440;BME280;11387;51.612;7.210;2023-09-30T07:03:51;101749.72;;;19.75;72.54
22440;BME280;11387;51.612;7.210;2023-09-30T07:06:23;101745.53;;;20.19;67.92
22440;BME280;11387;51.612;7.210;2023-09-30T07:08:52;101752.09;;;21.06;63.77
22440;BME280;11387;51.612;7.210;2023-09-30T07:11:27;101755.28;;;21.87;62.50
22440;BME280;11387;51.612;7.210;2023-09-30T07:13:56;101764.72;;;22.18;60.60
22440;BME280;11387;51.612;7.210;2023-09-30T07:16:24;101757.56;;;22.98;56.97
22440;BME280;11387;51.612;7.210;2023-09-30T07:18:54;101764.28;;;23.09;55.46
22440;BME280;11387;51.612;7.210;2023-09-30T07:21:24;101768.19;;;23.79;54.11
22440;BME280;11387;51.612;7.210;2023-09-30T07:23:53;101781.91;;;24.51;49.94
22440;BME280;11387;51.612;7.210;2023-09-30T07:26:23;101785.56;;;24.04;50.38
22440;BME280;11387;51.612;7.210;2023-09-30T07:28:52;101775.38;;;24.63;49.12
22440;BME280;11387;51.612;7.210;2023-09-30T07:31:22;101783.03;;;24.66;47.95
22440;BME280;11387;51.612;7.210;2023-09-30T07:33:51;101792.25;;;24.31;48.92
22440;BME280;11387;51.612;7.210;2023-09-30T07:36:21;101801.34;;;25.17;47.32
22440;BME280;11387;51.612;7.210;2023-09-30T07:38:51;101796.13;;;25.58;46.08
22440;BME280;11387;51.612;7.210;2023-09-30T07:41:20;101800.44;;;24.94;47.27
22440;BME280;11387;51.612;7.210;2023-09-30T07:43:49;101791.38;;;25.20;47.50
22440;BME280;11387;51.612;7.210;2023-09-30T07:46:17;101793.16;;;26.42;44.88
22440;BME280;11387;51.612;7.210;2023-09-30T07:48:46;101798.81;;;27.02;42.86
22440;BME280;11387;51.612;7.210;2023-09-30T07:51:15;101804.88;;;27.41;43.03
22440;BME280;11387;51.612;7.210;2023-09-30T07:53:45;101807.47;;;27.24;41.38
22440;BME280;11387;51.612;7.210;2023-09-30T07:56:14;101807.00;;;27.52;40.83
22440;BME280;11387;51.612;7.210;2023-09-30T07:58:42;101812.94;;;27.09;42.67
22440;BME280;11387;51.612;7.210;2023-09-30T08:01:11;101803.84;;;27.23;41.28
22440;BME280;11387;51.612;7.210;2023-09-30T08:03:40;101810.00;;;26.20;43.44
22440;BME280;11387;51.612;7.210;2023-09-30T08:06:09;101815.34;;;26.51;42.85
22440;BME280;11387;51.612;7.210;2023-09-30T08:08:38;101808.03;;;27.03;42.58
22440;BME280;11387;51.612;7.210;2023-09-30T08:11:08;101815.88;;;26.90;42.51
22440;BME280;11387;51.612;7.210;2023-09-30T08:13:36;101812.78;;;26.42;42.98
22440;BME280;11387;51.612;7.210;2023-09-30T08:16:05;101813.28;;;26.48;43.69
22440;BME280;11387;51.612;7.210;2023-09-30T08:18:34;101818.69;;;27.57;41.14
22440;BME280;11387;51.612;7.210;2023-09-30T08:21:03;101813.00;;;27.91;40.36
22440;BME280;11387;51.612;7.210;2023-09-30T08:23:32;101820.31;;;27.99;39.52
22440;BME280;11387;51.612;7.210;2023-09-30T08:26:00;101816.38;;;29.56;38.14
22440;BME280;11387;51.612;7.210;2023-09-30T08:28:30;101823.91;;;29.20;37.53
22440;BME280;11387;51.612;7.210;2023-09-30T08:31:02;101825.31;;;28.78;37.86
22440;BME280;11387;51.612;7.210;2023-09-30T08:33:32;101821.22;;;29.55;36.53
22440;BME280;11387;51.612;7.210;2023-09-30T08:36:04;101818.44;;;29.91;36.40
22440;BME280;11387;51.612;7.210;2023-09-30T08:38:35;101826.50;;;29.92;35.68
22440;BME280;11387;51.612;7.210;2023-09-30T08:41:05;101824.47;;;29.75;36.63
22440;BME280;11387;51.612;7.210;2023-09-30T08:43:37;101828.00;;;30.93;35.17
22440;BME280;11387;51.612;7.210;2023-09-30T08:46:07;101832.28;;;31.99;32.14
22440;BME280;11387;51.612;7.210;2023-09-30T08:48:36;101817.97;;;31.68;32.24
22440;BME280;11387;51.612;7.210;2023-09-30T08:51:05;101823.69;;;30.03;33.95
22440;BME280;11387;51.612;7.210;2023-09-30T08:53:34;101824.53;;;30.14;34.71
22440;BME280;11387;51.612;7.210;2023-09-30T08:56:04;101821.88;;;31.08;34.09
22440;BME280;11387;51.612;7.210;2023-09-30T08:58:38;101812.91;;;31.28;33.55
22440;BME280;11387;51.612;7.210;2023-09-30T09:01:08;101812.34;;;30.60;34.34
22440;BME280;11387;51.612;7.210;2023-09-30T09:03:38;101821.06;;;31.85;32.05
22440;BME280;11387;51.612;7.210;2023-09-30T09:06:07;101808.13;;;31.84;31.72
22440;BME280;11387;51.612;7.210;2023-09-30T09:08:35;101806.16;;;31.00;32.57
22440;BME280;11387;51.612;7.210;2023-09-30T09:11:04;101804.91;;;31.81;31.33
22440;BME280;11387;51.612;7.210;2023-09-30T09:13:45;101790.81;;;32.23;30.18
22440;BME280;11387;51.612;7.210;2023-09-30T09:16:17;101790.28;;;33.91;29.08
22440;BME280;11387;51.612;7.210;2023-09-30T09:18:49;101786.66;;;31.31;31.18
22440;BME280;11387;51.612;7.210;2023-09-30T09:21:20;101790.59;;;29.46;33.73
22440;BME280;11387;51.612;7.210;2023-09-30T09:23:51;101788.81;;;27.82;37.64
22440;BME280;11387;51.612;7.210;2023-09-30T09:26:25;101792.03;;;28.98;35.37
22440;BME280;11387;51.612;7.210;2023-09-30T09:28:58;101794.28;;;30.22;33.35
22440;BME280;11387;51.612;7.210;2023-09-30T09:31:28;101802.50;;;31.18;31.59
22440;BME280;11387;51.612;7.210;2023-09-30T09:33:57;101806.34;;;32.86;29.22
22440;BME280;11387;51.612;7.210;2023-09-30T09:36:38;101799.41;;;33.75;26.74
22440;BME280;11387;51.612;7.210;2023-09-30T09:39:07;101798.22;;;34.66;25.32
22440;BME280;11387;51.612;7.210;2023-09-30T09:41:49;101787.31;;;35.20;24.67
22440;BME280;11387;51.612;7.210;2023-09-30T09:44:20;101791.69;;;36.55;22.80
22440;BME280;11387;51.612;7.210;2023-09-30T09:46:50;101788.31;;;37.01;22.83
22440;BME280;11387;51.612;7.210;2023-09-30T09:49:19;101787.09;;;36.44;22.89
22440;BME280;11387;51.612;7.210;2023-09-30T09:51:49;101790.50;;;35.06;23.87
22440;BME280;11387;51.612;7.210;2023-09-30T09:54:19;101787.72;;;35.02;24.20
22440;BME280;11387;51.612;7.210;2023-09-30T09:56:49;101785.69;;;36.65;22.38
22440;BME280;11387;51.612;7.210;2023-09-30T09:59:22;101797.72;;;35.10;23.45
22440;BME280;11387;51.612;7.210;2023-09-30T10:01:52;101803.59;;;33.67;24.62
22440;BME280;11387;51.612;7.210;2023-09-30T10:04:21;101784.31;;;31.11;28.02
22440;BME280;11387;51.612;7.210;2023-09-30T10:06:52;101795.88;;;30.15;29.56
22440;BME280;11387;51.612;7.210;2023-09-30T10:09:23;101801.13;;;32.81;26.98
22440;BME280;11387;51.612;7.210;2023-09-30T10:11:58;101806.75;;;33.72;26.03
22440;BME280;11387;51.612;7.210;2023-09-30T10:14:32;101806.31;;;34.48;24.99
22440;BME280;11387;51.612;7.210;2023-09-30T10:17:03;101811.88;;;34.94;23.73
22440;BME280;11387;51.612;7.210;2023-09-30T10:19:31;101814.69;;;34.74;23.81
22440;BME280;11387;51.612;7.210;2023-09-30T10:22:22;101796.44;;;31.08;27.37
22440;BME280;11387;51.612;7.210;2023-09-30T10:24:53;101803.16;;;28.76;31.80
22440;BME280;11387;51.612;7.210;2023-09-30T10:30:10;101807.13;;;29.76;30.13
22440;BME280;11387;51.612;7.210;2023-09-30T10:33:09;101805.25;;;31.25;28.15
22440;BME280;11387;51.612;7.210;2023-09-30T10:35:45;101821.28;;;32.08;26.57
22440;BME280;11387;51.612;7.210;2023-09-30T10:38:44;101823.47;;;31.86;26.48
22440;BME280;11387;51.612;7.210;2023-09-30T10:41:15;101830.94;;;31.55;27.71
22440;BME280;11387;51.612;7.210;2023-09-30T10:44:32;101822.78;;;33.32;26.14
22440;BME280;11387;51.612;7.210;2023-09-30T10:47:37;101822.25;;;34.61;24.48
22440;BME280;11387;51.612;7.210;2023-09-30T10:53:15;101834.53;;;37.89;21.13
22440;BME280;11387;51.612;7.210;2023-09-30T10:55:45;101831.25;;;36.53;20.57
22440;BME280;11387;51.612;7.210;2023-09-30T10:58:16;101815.97;;;35.65;21.39
22440;BME280;11387;51.612;7.210;2023-09-30T11:00:54;101810.97;;;37.21;20.74
22440;BME280;11387;51.612;7.210;2023-09-30T11:03:24;101799.25;;;36.32;20.66
22440;BME280;11387;51.612;7.210;2023-09-30T11:05:53;101809.00;;;38.07;19.76
22440;BME280;11387;51.612;7.210;2023-09-30T11:08:41;101797.75;;;35.63;22.18
22440;BME280;11387;51.612;7.210;2023-09-30T11:11:13;101800.91;;;34.73;23.26
22440;BME280;11387;51.612;7.210;2023-09-30T11:13:41;101793.25;;;35.29;22.65
22440;BME280;11387;51.612;7.210;2023-09-30T11:16:12;101796.06;;;33.57;24.04
22440;BME280;11387;51.612;7.210;2023-09-30T11:18:42;101792.97;;;33.98;23.87
22440;BME280;11387;51.612;7.210;2023-09-30T11:21:12;101791.63;;;32.98;24.80
22440;BME280;11387;51.612;7.210;2023-09-30T11:23:41;101781.75;;;31.94;26.93
22440;BME280;11387;51.612;7.210;2023-09-30T11:26:10;101782.06;;;29.36;30.31
22440;BME280;11387;51.612;7.210;2023-09-30T11:28:43;101776.06;;;30.47;29.17
22440;BME280;11387;51.612;7.210;2023-09-30T11:31:12;101759.56;;;30.28;30.03
22440;BME280;11387;51.612;7.210;2023-09-30T11:33:50;101765.38;;;31.74;28.17
22440;BME280;11387;51.612;7.210;2023-09-30T11:36:21;101768.50;;;34.51;24.42
22440;BME280;11387;51.612;7.210;2023-09-30T11:38:51;101766.41;;;35.63;21.75
22440;BME280;11387;51.612;7.210;2023-09-30T11:41:21;101770.88;;;36.99;21.76
22440;BME280;11387;51.612;7.210;2023-09-30T11:44:00;101775.31;;;37.64;20.53
22440;BME280;11387;51.612;7.210;2023-09-30T11:46:32;101779.84;;;38.47;19.55
22440;BME280;11387;51.612;7.210;2023-09-30T11:49:03;101772.63;;;37.48;20.37
22440;BME280;11387;51.612;7.210;2023-09-30T11:51:43;101768.88;;;34.06;22.91
22440;BME280;11387;51.612;7.210;2023-09-30T11:54:14;101762.31;;;30.60;27.13
22440;BME280;11387;51.612;7.210;2023-09-30T11:56:43;101765.44;;;27.34;32.13
22440;BME280;11387;51.612;7.210;2023-09-30T11:59:17;101758.56;;;25.86;35.57
22440;BME280;11387;51.612;7.210;2023-09-30T12:01:46;101757.25;;;25.34;36.76
22440;BME280;11387;51.612;7.210;2023-09-30T12:04:30;101768.78;;;25.74;36.76
22440;BME280;11387;51.612;7.210;2023-09-30T12:06:59;101763.66;;;26.03;36.24
22440;BME280;11387;51.612;7.210;2023-09-30T12:09:28;101760.72;;;24.89;38.01
22440;BME280;11387;51.612;7.210;2023-09-30T12:11:57;101756.78;;;25.74;38.44
22440;BME280;11387;51.612;7.210;2023-09-30T12:14:26;101753.88;;;29.25;33.00
22440;BME280;11387;51.612;7.210;2023-09-30T12:16:57;101758.13;;;32.52;27.55
22440;BME280;11387;51.612;7.210;2023-09-30T12:19:25;101760.59;;;33.68;25.93
22440;BME280;11387;51.612;7.210;2023-09-30T12:21:56;101748.75;;;34.83;23.91
22440;BME280;11387;51.612;7.210;2023-09-30T12:24:24;101739.53;;;34.56;22.83
22440;BME280;11387;51.612;7.210;2023-09-30T12:26:54;101732.22;;;34.15;23.82
22440;BME280;11387;51.612;7.210;2023-09-30T12:29:23;101739.97;;;33.10;24.49
22440;BME280;11387;51.612;7.210;2023-09-30T12:31:52;101734.09;;;32.98;25.02
22440;BME280;11387;51.612;7.210;2023-09-30T12:34:22;101735.31;;;32.32;25.19
22440;BME280;11387;51.612;7.210;2023-09-30T12:36:53;101731.00;;;31.76;27.07
22440;BME280;11387;51.612;7.210;2023-09-30T12:39:24;101729.38;;;32.54;26.20
22440;BME280;11387;51.612;7.210;2023-09-30T12:42:00;101714.25;;;33.52;24.87
22440;BME280;11387;51.612;7.210;2023-09-30T12:44:28;101720.50;;;34.33;24.44
22440;BME280;11387;51.612;7.210;2023-09-30T12:46:57;101720.59;;;33.05;25.59
22440;BME280;11387;51.612;7.210;2023-09-30T12:49:25;101722.81;;;33.21;24.51
22440;BME280;11387;51.612;7.210;2023-09-30T12:51:54;101724.78;;;31.88;26.60
22440;BME280;11387;51.612;7.210;2023-09-30T12:54:25;101725.03;;;32.08;26.34
22440;BME280;11387;51.612;7.210;2023-09-30T12:56:54;101724.16;;;31.14;27.71
22440;BME280;11387;51.612;7.210;2023-09-30T12:59:23;101728.44;;;32.98;25.95
22440;BME280;11387;51.612;7.210;2023-09-30T13:01:53;101719.81;;;30.89;27.33
22440;BME280;11387;51.612;7.210;2023-09-30T13:04:22;101718.66;;;30.79;28.46
22440;BME280;11387;51.612;7.210;2023-09-30T13:06:51;101710.31;;;30.43;28.41
22440;BME280;11387;51.612;7.210;2023-09-30T13:09:19;101721.63;;;29.15;30.86